createdAt,value
2023-03-18T00:03:58.533Z,-1.50
2023-03-18T00:14:02.497Z,-1.50
2023-03-18T00:24:07.967Z,-1.60
2023-03-18T00:34:12.597Z,-1.60
2023-03-18T00:44:19.461Z,-1.70
2023-03-18T00:54:24.837Z,-1.90
2023-03-18T01:04:29.867Z,-2.10
2023-03-18T01:14:33.501Z,-2.40
2023-03-18T01:24:39.552Z,-2.50
2023-03-18T01:34:44.259Z,-2.70
2023-03-18T01:44:49.998Z,-2.90
2023-03-18T01:55:02.895Z,-3.00
2023-03-18T02:05:12.995Z,-3.20
2023-03-18T02:15:21.376Z,-3.30
2023-03-18T02:25:38.492Z,-3.50
2023-03-18T02:35:47.362Z,-3.50
2023-03-18T02:46:13.763Z,-3.70
2023-03-18T02:56:19.615Z,-3.70
2023-03-18T03:06:24.043Z,-3.60
2023-03-18T03:16:29.621Z,-3.70
2023-03-18T03:26:35.071Z,-3.80
2023-03-18T03:36:40.154Z,-3.80
2023-03-18T03:46:43.648Z,-3.80
2023-03-18T03:56:48.811Z,-3.80
2023-03-18T04:06:52.779Z,-3.80
2023-03-18T04:17:00.455Z,-3.80
2023-03-18T04:27:05.828Z,-3.90
2023-03-18T04:37:11.763Z,-4.00
2023-03-18T04:47:16.605Z,-4.10
2023-03-18T04:57:23.055Z,-4.10
2023-03-18T05:07:31.915Z,-4.00
2023-03-18T05:17:42.876Z,-3.80
2023-03-18T05:27:47.662Z,-3.60
2023-03-18T05:38:05.161Z,-3.30
2023-03-18T05:48:09.317Z,-3.10
2023-03-18T05:58:22.168Z,-2.70
2023-03-18T06:08:31.857Z,-2.30
2023-03-18T06:18:37.438Z,-1.80
2023-03-18T06:28:41.204Z,-0.70
2023-03-18T06:38:48.910Z,1.80
2023-03-18T06:48:54.600Z,6.60
2023-03-18T06:59:05.370Z,9.70
2023-03-18T07:09:11.185Z,11.20
2023-03-18T07:19:17.857Z,13.40
2023-03-18T07:29:22.470Z,15.10
2023-03-18T07:39:27.606Z,16.20
2023-03-18T07:49:31.920Z,17.40
2023-03-18T07:59:37.624Z,18.20
2023-03-18T08:09:41.216Z,19.50
2023-03-18T08:19:47.130Z,21.00
2023-03-18T08:29:50.897Z,22.70
2023-03-18T08:39:55.802Z,25.10
2023-03-18T08:49:59.322Z,27.00
2023-03-18T09:00:05.500Z,28.10
2023-03-18T09:10:12.899Z,29.60
2023-03-18T09:20:19.421Z,29.90
2023-03-18T09:30:23.402Z,32.00
2023-03-18T09:40:32.893Z,32.50
2023-03-18T09:50:44.259Z,33.40
2023-03-18T10:00:52.032Z,34.20
2023-03-18T10:10:55.539Z,34.70
2023-03-18T10:21:18.831Z,34.90
2023-03-18T10:31:51.333Z,37.70
2023-03-18T10:42:02.316Z,39.60
2023-03-18T10:52:13.685Z,40.40
2023-03-18T11:02:24.149Z,42.10
2023-03-18T11:12:30.033Z,43.30
2023-03-18T11:22:36.824Z,44.00
2023-03-18T11:32:54.293Z,42.90
2023-03-18T11:43:04.628Z,43.80
2023-03-18T11:53:14.969Z,44.90
2023-03-18T12:04:02.198Z,47.10
2023-03-18T12:14:12.923Z,47.80
2023-03-18T12:24:51.522Z,46.20
2023-03-18T12:35:30.268Z,47.20
2023-03-18T12:45:39.771Z,45.70
2023-03-18T12:55:48.290Z,44.90
2023-03-18T13:05:57.068Z,42.50
2023-03-18T13:16:04.751Z,42.60
2023-03-18T13:26:16.957Z,42.60
2023-03-18T13:36:51.041Z,38.80
2023-03-18T13:47:05.505Z,37.80
2023-03-18T13:57:34.596Z,37.60
2023-03-18T14:07:49.606Z,37.50
2023-03-18T14:17:58.616Z,36.20
2023-03-18T14:28:20.590Z,36.00
2023-03-18T14:38:28.106Z,31.80
2023-03-18T14:48:34.646Z,27.10
2023-03-18T14:58:38.274Z,25.30
2023-03-18T15:08:52.205Z,21.80
2023-03-18T15:18:57.248Z,19.00
2023-03-18T15:29:24.286Z,17.30
2023-03-18T15:39:36.142Z,16.10
2023-03-18T15:49:52.853Z,15.20
2023-03-18T15:59:56.441Z,14.60
2023-03-18T16:10:01.708Z,13.90
2023-03-18T16:20:17.211Z,13.30
2023-03-18T16:30:26.549Z,12.60
2023-03-18T16:40:32.841Z,11.90
2023-03-18T16:50:40.056Z,11.00
2023-03-18T17:00:46.874Z,10.20
2023-03-18T17:10:55.799Z,9.40
2023-03-18T17:20:59.508Z,8.60
2023-03-18T17:31:05.033Z,7.90
2023-03-18T17:41:17.698Z,7.10
2023-03-18T17:51:24.756Z,6.60
2023-03-18T18:01:31.122Z,6.10
2023-03-18T18:11:39.777Z,5.80
2023-03-18T18:21:44.806Z,5.30
2023-03-18T18:31:50.503Z,5.00
2023-03-18T18:41:55.559Z,4.80
2023-03-18T18:52:02.287Z,4.70
2023-03-18T19:02:32.002Z,4.50
2023-03-18T19:12:39.915Z,4.30
2023-03-18T19:22:44.794Z,4.10
2023-03-18T19:32:50.747Z,3.90
2023-03-18T19:42:55.311Z,3.60
2023-03-18T19:53:01.922Z,3.30
2023-03-18T20:03:11.972Z,3.00
2023-03-18T20:13:22.428Z,2.80
2023-03-18T20:23:30.141Z,2.40
2023-03-18T20:33:37.089Z,2.00
2023-03-18T20:43:49.390Z,1.70
2023-03-18T20:53:55.195Z,1.50
2023-03-18T21:04:02.335Z,1.30
2023-03-18T21:14:16.930Z,1.20
2023-03-18T21:24:29.192Z,1.00
2023-03-18T21:34:36.503Z,0.90
2023-03-18T21:44:40.935Z,0.90
2023-03-18T21:54:48.501Z,0.90
2023-03-18T22:04:53.503Z,0.70
2023-03-18T22:15:00.161Z,0.50
2023-03-18T22:25:04.229Z,0.40
2023-03-18T22:35:16.557Z,0.40
2023-03-18T22:45:25.588Z,0.30
2023-03-18T22:55:35.242Z,0.20
2023-03-18T23:05:38.925Z,0.10
2023-03-18T23:15:44.476Z,0.10
2023-03-18T23:25:48.395Z,-0.10
2023-03-18T23:35:53.378Z,-0.20
2023-03-18T23:45:56.925Z,-0.40
2023-03-18T23:56:01.854Z,-0.50
